Terminal Aerodrome Forecast
Issued by NWS Grand Forks, ND

Home | Current Version | Previous Version | Graphics & Text | Print | Product List | Glossary On
Versions: 1 2 3 4 5 6 7 8 9 10 11 12 13 14
189
FTUS43 KFGF 181132
TAFFAR
TAF
KFAR 181132Z 1812/1912 23014KT P6SM BKN250 WS020/29040KT
     FM181500 26017KT P6SM BKN250
     FM181800 29024G35KT P6SM FEW200
     FM182300 28016G24KT P6SM SKC
     FM190100 29010KT P6SM SKC
     FM190300 25009KT P6SM SKC
     FM190700 23005KT P6SM SKC=

USA.gov is the U.S. government's official web portal to all federal, state and local government web resources and services.